createdAt,value
2023-04-08T00:01:18.801Z,63.79
2023-04-08T00:03:46.300Z,63.16
2023-04-08T00:06:13.420Z,63.51
2023-04-08T00:08:41.931Z,63.60
2023-04-08T00:11:08.883Z,63.60
2023-04-08T00:13:36.048Z,63.37
2023-04-08T00:16:03.282Z,64.00
2023-04-08T00:18:30.331Z,64.34
2023-04-08T00:21:05.732Z,63.42
2023-04-08T00:23:32.802Z,64.00
2023-04-08T00:25:59.753Z,63.61
2023-04-08T00:28:26.843Z,64.20
2023-04-08T00:30:54.759Z,63.79
2023-04-08T00:33:22.247Z,63.16
2023-04-08T00:35:49.722Z,63.08
2023-04-08T00:38:17.084Z,63.54
2023-04-08T00:40:44.214Z,62.99
2023-04-08T00:43:11.630Z,63.26
2023-04-08T00:45:39.048Z,63.41
2023-04-08T00:48:06.449Z,63.67
2023-04-08T00:50:33.576Z,63.74
2023-04-08T00:53:00.614Z,63.95
2023-04-08T00:55:27.642Z,64.06
2023-04-08T00:57:56.998Z,63.80
2023-04-08T01:00:24.618Z,63.64
2023-04-08T01:03:23.281Z,63.76
2023-04-08T01:05:57.143Z,63.91
2023-04-08T01:08:27.991Z,64.08
2023-04-08T01:11:01.198Z,63.91
2023-04-08T01:13:31.837Z,64.14
2023-04-08T01:15:59.662Z,63.68
2023-04-08T01:18:27.165Z,63.33
2023-04-08T01:20:55.787Z,63.66
2023-04-08T01:23:41.467Z,63.43
2023-04-08T01:26:11.658Z,64.16
2023-04-08T01:28:41.080Z,63.94
2023-04-08T01:31:08.780Z,63.79
2023-04-08T01:33:37.354Z,63.10
2023-04-08T01:36:06.132Z,63.70
2023-04-08T01:38:34.617Z,63.77
2023-04-08T01:41:02.398Z,64.28
2023-04-08T01:43:32.307Z,63.89
2023-04-08T01:46:00.726Z,64.22
2023-04-08T01:48:28.793Z,63.99
2023-04-08T01:50:57.919Z,64.57
2023-04-08T01:53:25.060Z,64.80
2023-04-08T01:56:04.006Z,64.73
2023-04-08T01:58:39.294Z,64.98
2023-04-08T02:01:13.924Z,65.33
2023-04-08T02:03:45.049Z,65.68
2023-04-08T02:06:14.346Z,66.42
2023-04-08T02:08:41.310Z,66.62
2023-04-08T02:11:08.291Z,66.75
2023-04-08T02:13:35.436Z,67.08
2023-04-08T02:16:24.955Z,67.19
2023-04-08T02:18:59.663Z,67.62
2023-04-08T02:21:41.422Z,67.98
2023-04-08T02:24:09.746Z,67.92
2023-04-08T02:26:38.831Z,69.29
2023-04-08T02:29:08.473Z,70.83
2023-04-08T02:31:36.476Z,70.73
2023-04-08T02:34:06.485Z,71.13
2023-04-08T02:36:34.349Z,71.70
2023-04-08T02:39:04.062Z,71.82
2023-04-08T02:41:31.536Z,72.15
2023-04-08T02:43:58.871Z,72.62
2023-04-08T02:46:25.950Z,72.75
2023-04-08T02:48:53.783Z,72.67
2023-04-08T02:51:21.083Z,73.68
2023-04-08T02:53:48.082Z,73.40
2023-04-08T02:56:15.102Z,73.17
2023-04-08T02:58:42.140Z,72.99
2023-04-08T03:01:09.645Z,73.74
2023-04-08T03:03:37.480Z,73.28
2023-04-08T03:06:05.020Z,73.32
2023-04-08T03:08:32.760Z,72.88
2023-04-08T03:10:59.753Z,72.64
2023-04-08T03:13:26.754Z,72.84
2023-04-08T03:15:53.833Z,72.78
2023-04-08T03:18:21.536Z,72.71
2023-04-08T03:20:48.688Z,72.43
2023-04-08T03:23:16.416Z,72.43
2023-04-08T03:25:44.467Z,72.10
2023-04-08T03:28:11.392Z,72.13
2023-04-08T03:30:38.530Z,72.24
2023-04-08T03:33:08.147Z,72.62
2023-04-08T03:35:35.684Z,72.11
2023-04-08T03:38:02.881Z,71.90
2023-04-08T03:40:30.059Z,72.04
2023-04-08T03:42:57.130Z,71.72
2023-04-08T03:45:24.453Z,71.39
2023-04-08T03:47:53.742Z,71.91
2023-04-08T03:50:21.052Z,71.74
2023-04-08T03:52:47.992Z,71.84
2023-04-08T03:55:15.398Z,71.92
2023-04-08T03:57:44.254Z,71.70
2023-04-08T04:00:12.818Z,72.05
2023-04-08T04:02:40.128Z,72.34
2023-04-08T04:05:08.148Z,72.24
2023-04-08T04:07:35.141Z,72.40
2023-04-08T04:10:03.548Z,72.91
2023-04-08T04:12:30.584Z,72.71
2023-04-08T04:14:57.642Z,72.62
2023-04-08T04:17:25.035Z,73.36
2023-04-08T04:19:52.960Z,73.37
2023-04-08T04:22:19.989Z,73.46
2023-04-08T04:24:48.968Z,73.63
2023-04-08T04:27:18.328Z,73.91
2023-04-08T04:29:45.297Z,73.57
2023-04-08T04:32:12.361Z,73.91
2023-04-08T04:34:39.492Z,74.03
2023-04-08T04:37:06.638Z,74.02
2023-04-08T04:39:33.738Z,73.40
2023-04-08T04:42:01.101Z,73.88
2023-04-08T04:44:28.315Z,73.86
2023-04-08T04:46:55.345Z,73.53
2023-04-08T04:49:22.683Z,73.09
2023-04-08T04:51:49.692Z,73.49
2023-04-08T04:54:16.729Z,73.70
2023-04-08T04:56:43.675Z,73.20
2023-04-08T04:59:10.662Z,73.43
2023-04-08T05:01:37.819Z,73.45
2023-04-08T05:04:04.901Z,73.46
2023-04-08T05:06:32.006Z,74.11
2023-04-08T05:08:59.105Z,73.93
2023-04-08T05:11:26.200Z,74.12
2023-04-08T05:13:53.150Z,74.07
2023-04-08T05:16:20.468Z,74.18
2023-04-08T05:18:47.605Z,74.75
2023-04-08T05:21:14.822Z,74.98
2023-04-08T05:23:41.877Z,75.20
2023-04-08T05:26:09.005Z,74.85
2023-04-08T05:28:36.266Z,76.11
2023-04-08T05:31:03.505Z,76.04
2023-04-08T05:33:30.604Z,76.00
2023-04-08T05:35:58.056Z,76.24
2023-04-08T05:38:25.310Z,75.80
2023-04-08T05:40:52.564Z,76.22
2023-04-08T05:43:19.572Z,76.13
2023-04-08T05:45:46.874Z,76.75
2023-04-08T05:48:13.975Z,75.79
2023-04-08T05:50:41.367Z,76.30
2023-04-08T05:53:08.430Z,77.12
2023-04-08T05:55:35.796Z,76.90
2023-04-08T05:58:03.011Z,76.67
2023-04-08T06:00:32.907Z,76.70
2023-04-08T06:03:04.557Z,76.88
2023-04-08T06:05:32.179Z,76.99
2023-04-08T06:07:59.338Z,77.03
2023-04-08T06:10:26.368Z,77.66
2023-04-08T06:12:53.342Z,77.45
2023-04-08T06:15:21.558Z,77.14
2023-04-08T06:17:48.617Z,77.76
2023-04-08T06:20:15.595Z,77.94
2023-04-08T06:22:42.549Z,77.75
2023-04-08T06:25:10.261Z,78.06
2023-04-08T06:27:37.223Z,77.64
2023-04-08T06:30:04.566Z,77.60
2023-04-08T06:32:31.832Z,78.02
2023-04-08T06:34:58.962Z,77.94
2023-04-08T06:37:26.121Z,78.40
2023-04-08T06:39:53.007Z,78.08
2023-04-08T06:42:20.920Z,78.19
2023-04-08T06:45:02.542Z,78.72
2023-04-08T06:47:29.571Z,78.99
2023-04-08T06:49:57.189Z,78.89
2023-04-08T06:52:24.125Z,79.47
2023-04-08T06:54:51.172Z,79.15
2023-04-08T06:57:18.379Z,79.26
2023-04-08T06:59:45.520Z,78.93
2023-04-08T07:02:12.617Z,78.62
2023-04-08T07:04:39.592Z,79.42
2023-04-08T07:07:07.326Z,78.54
2023-04-08T07:09:36.996Z,78.51
2023-04-08T07:12:05.066Z,78.86
2023-04-08T07:14:32.204Z,78.81
2023-04-08T07:16:59.460Z,78.13
2023-04-08T07:19:27.089Z,77.96
2023-04-08T07:21:54.441Z,78.48
2023-04-08T07:24:21.553Z,77.93
2023-04-08T07:26:48.501Z,77.88
2023-04-08T07:29:15.943Z,77.79
2023-04-08T07:31:43.997Z,77.25
2023-04-08T07:34:11.401Z,77.33
2023-04-08T07:36:39.267Z,77.16
2023-04-08T07:39:06.610Z,76.56
2023-04-08T07:41:34.155Z,76.30
2023-04-08T07:44:01.435Z,76.31
2023-04-08T07:46:28.738Z,76.64
2023-04-08T07:48:56.035Z,75.92
2023-04-08T07:51:23.283Z,75.90
2023-04-08T07:53:50.512Z,75.51
2023-04-08T07:56:18.644Z,74.97
2023-04-08T07:58:47.046Z,74.33
2023-04-08T08:01:25.435Z,74.79
2023-04-08T08:03:55.872Z,74.16
2023-04-08T08:06:23.080Z,74.13
2023-04-08T08:08:50.051Z,73.66
2023-04-08T08:11:17.216Z,74.00
2023-04-08T08:13:44.702Z,73.69
2023-04-08T08:16:12.225Z,73.63
2023-04-08T08:18:41.068Z,73.74
2023-04-08T08:21:09.341Z,73.22
2023-04-08T08:23:37.898Z,73.11
2023-04-08T08:26:10.295Z,72.21
2023-04-08T08:28:39.100Z,71.52
2023-04-08T08:31:06.880Z,71.63
2023-04-08T08:33:34.281Z,71.70
2023-04-08T08:36:02.486Z,70.41
2023-04-08T08:38:30.062Z,69.12
2023-04-08T08:40:59.174Z,67.94
2023-04-08T08:43:27.714Z,68.36
2023-04-08T08:45:55.114Z,68.53
2023-04-08T08:48:23.109Z,67.23
2023-04-08T08:50:50.483Z,65.88
2023-04-08T08:53:19.710Z,66.25
2023-04-08T08:58:17.566Z,66.25
2023-04-08T09:00:45.277Z,66.56
2023-04-08T09:03:29.977Z,66.43
2023-04-08T09:06:01.194Z,65.37
2023-04-08T09:08:37.063Z,66.04
2023-04-08T09:11:21.919Z,66.61
2023-04-08T09:13:49.701Z,64.97
2023-04-08T09:16:20.023Z,64.98
2023-04-08T09:18:49.329Z,65.12
2023-04-08T09:21:18.070Z,64.16
2023-04-08T09:23:53.039Z,63.79
2023-04-08T09:26:27.520Z,64.01
2023-04-08T09:29:18.052Z,64.07
2023-04-08T09:31:56.497Z,64.52
2023-04-08T09:34:24.716Z,63.55
2023-04-08T09:36:52.726Z,63.49
2023-04-08T09:39:20.543Z,63.46
2023-04-08T09:41:52.405Z,62.60
2023-04-08T09:44:21.854Z,62.91
2023-04-08T09:47:09.867Z,61.53
2023-04-08T09:50:04.318Z,61.35
2023-04-08T09:52:34.524Z,63.00
2023-04-08T09:55:10.508Z,62.08
2023-04-08T09:57:42.664Z,61.51
2023-04-08T10:00:17.919Z,61.14
2023-04-08T10:03:03.416Z,61.49
2023-04-08T10:05:31.718Z,60.62
2023-04-08T10:07:59.230Z,59.86
2023-04-08T10:10:27.485Z,59.58
2023-04-08T10:12:55.340Z,58.11
2023-04-08T10:15:30.908Z,59.30
2023-04-08T10:18:06.778Z,58.73
2023-04-08T10:20:37.063Z,57.50
2023-04-08T10:23:07.524Z,56.95
2023-04-08T10:25:38.886Z,56.44
2023-04-08T10:28:12.001Z,55.46
2023-04-08T10:30:50.419Z,53.93
2023-04-08T10:33:29.692Z,54.62
2023-04-08T10:36:12.661Z,52.87
2023-04-08T10:38:42.257Z,52.13
2023-04-08T10:41:14.409Z,51.87
2023-04-08T10:43:42.166Z,51.19
2023-04-08T10:46:12.077Z,51.83
2023-04-08T10:48:39.413Z,52.49
2023-04-08T10:51:06.837Z,53.36
2023-04-08T10:53:41.743Z,53.17
2023-04-08T10:56:15.298Z,53.50
2023-04-08T10:58:55.173Z,52.25
2023-04-08T11:01:23.001Z,52.65
2023-04-08T11:03:51.033Z,51.49
2023-04-08T11:06:19.522Z,51.33
2023-04-08T11:08:47.472Z,51.49
2023-04-08T11:11:19.281Z,51.49
2023-04-08T11:13:53.185Z,51.22
2023-04-08T11:16:24.373Z,51.34
2023-04-08T11:18:52.033Z,50.63
2023-04-08T11:21:19.523Z,50.41
2023-04-08T11:23:51.263Z,48.80
2023-04-08T11:26:20.192Z,48.05
2023-04-08T11:28:51.875Z,47.97
2023-04-08T11:31:23.567Z,48.96
2023-04-08T11:33:56.260Z,48.63
2023-04-08T11:36:23.475Z,48.47
2023-04-08T11:38:50.708Z,47.79
2023-04-08T11:41:18.208Z,48.05
2023-04-08T11:43:53.458Z,47.20
2023-04-08T11:46:20.736Z,45.47
2023-04-08T11:49:06.280Z,45.47
2023-04-08T11:51:35.548Z,46.21
2023-04-08T11:54:08.997Z,46.24
2023-04-08T11:56:47.120Z,45.07
2023-04-08T11:59:15.319Z,44.21
2023-04-08T12:01:44.031Z,44.63
2023-04-08T12:04:11.391Z,45.09
2023-04-08T12:06:38.590Z,45.56
2023-04-08T12:09:05.534Z,45.89
2023-04-08T12:11:32.666Z,45.28
2023-04-08T12:13:59.921Z,44.15
2023-04-08T12:16:27.412Z,42.83
2023-04-08T12:18:54.713Z,42.04
2023-04-08T12:21:22.028Z,42.11
2023-04-08T12:23:49.487Z,42.14
2023-04-08T12:26:16.636Z,43.17
2023-04-08T12:28:43.675Z,43.55
2023-04-08T12:31:10.772Z,42.67
2023-04-08T12:33:37.794Z,42.14
2023-04-08T12:36:04.991Z,42.54
2023-04-08T12:38:32.015Z,42.67
2023-04-08T12:41:00.002Z,43.10
2023-04-08T12:43:27.531Z,42.42
2023-04-08T12:45:54.829Z,42.74
2023-04-08T12:48:21.907Z,42.59
2023-04-08T12:50:48.898Z,42.29
2023-04-08T12:53:16.059Z,42.10
2023-04-08T12:55:44.525Z,41.34
2023-04-08T12:58:11.870Z,40.37
2023-04-08T13:00:39.040Z,39.60
2023-04-08T13:03:08.116Z,39.62
2023-04-08T13:05:43.398Z,40.00
2023-04-08T13:08:14.740Z,39.49
2023-04-08T13:10:42.623Z,39.42
2023-04-08T13:13:09.684Z,39.97
2023-04-08T13:15:37.005Z,40.07
2023-04-08T13:18:04.991Z,40.12
2023-04-08T13:20:33.783Z,39.88
2023-04-08T13:23:01.689Z,39.61
2023-04-08T13:25:28.963Z,38.62
2023-04-08T13:27:56.146Z,39.49
2023-04-08T13:30:23.255Z,38.94
2023-04-08T13:32:50.485Z,39.30
2023-04-08T13:35:17.871Z,39.35
2023-04-08T13:37:44.838Z,39.13
2023-04-08T13:40:12.315Z,38.51
2023-04-08T13:42:39.464Z,38.60
2023-04-08T13:45:07.339Z,37.46
2023-04-08T13:47:35.879Z,37.46
2023-04-08T13:50:06.354Z,37.48
2023-04-08T13:52:33.644Z,36.83
2023-04-08T13:55:00.895Z,35.67
2023-04-08T13:57:28.474Z,36.25
2023-04-08T13:59:55.728Z,37.01
2023-04-08T14:02:23.500Z,36.88
2023-04-08T14:04:50.731Z,37.09
2023-04-08T14:07:18.924Z,37.12
2023-04-08T14:09:46.268Z,36.37
2023-04-08T14:12:13.757Z,36.29
2023-04-08T14:14:40.872Z,35.47
2023-04-08T14:17:07.829Z,35.91
2023-04-08T14:19:35.279Z,36.18
2023-04-08T14:22:03.283Z,35.65
2023-04-08T14:24:30.462Z,35.39
2023-04-08T14:26:58.373Z,35.74
2023-04-08T14:29:27.318Z,35.78
2023-04-08T14:31:54.963Z,35.67
2023-04-08T14:34:22.272Z,35.58
2023-04-08T14:36:49.425Z,35.23
2023-04-08T14:39:16.510Z,34.08
2023-04-08T14:41:43.572Z,34.22
2023-04-08T14:44:10.581Z,35.40
2023-04-08T14:46:37.707Z,35.26
2023-04-08T14:49:05.044Z,35.72
2023-04-08T14:51:33.083Z,35.63
2023-04-08T14:54:00.286Z,35.67
2023-04-08T14:56:27.317Z,35.06
2023-04-08T14:58:55.693Z,34.81
2023-04-08T15:01:23.007Z,35.31
2023-04-08T15:03:50.519Z,35.49
2023-04-08T15:06:18.706Z,35.82
2023-04-08T15:08:45.957Z,34.98
2023-04-08T15:11:13.250Z,34.96
2023-04-08T15:13:40.704Z,35.79
2023-04-08T15:16:08.100Z,36.20
2023-04-08T15:18:36.247Z,36.22
2023-04-08T15:21:03.550Z,36.02
2023-04-08T15:23:31.761Z,36.07
2023-04-08T15:25:58.744Z,35.62
2023-04-08T15:28:27.430Z,35.90
2023-04-08T15:30:54.687Z,36.15
2023-04-08T15:33:21.677Z,36.15
2023-04-08T15:35:48.850Z,36.27
2023-04-08T15:38:16.244Z,35.39
2023-04-08T15:40:44.702Z,35.72
2023-04-08T15:43:12.557Z,36.19
2023-04-08T15:45:44.342Z,36.46
2023-04-08T15:48:14.401Z,35.92
2023-04-08T15:50:42.392Z,35.83
2023-04-08T15:53:09.668Z,36.00
2023-04-08T15:55:41.074Z,35.52
2023-04-08T15:58:08.287Z,34.83
2023-04-08T16:00:35.415Z,34.83
2023-04-08T16:03:05.555Z,35.11
2023-04-08T16:05:36.126Z,35.67
2023-04-08T16:08:04.629Z,35.74
2023-04-08T16:10:31.852Z,35.15
2023-04-08T16:12:59.324Z,35.73
2023-04-08T16:15:26.770Z,35.72
2023-04-08T16:17:54.211Z,36.21
2023-04-08T16:20:21.740Z,36.58
2023-04-08T16:22:50.180Z,36.76
2023-04-08T16:25:17.673Z,37.01
2023-04-08T16:27:44.760Z,37.01
2023-04-08T16:30:12.084Z,37.55
2023-04-08T16:32:39.660Z,37.78
2023-04-08T16:35:07.144Z,37.50
2023-04-08T16:37:34.849Z,38.01
2023-04-08T16:40:04.011Z,37.75
2023-04-08T16:42:31.361Z,38.02
2023-04-08T16:44:59.573Z,38.38
2023-04-08T16:47:26.856Z,38.52
2023-04-08T16:49:53.974Z,38.40
2023-04-08T16:52:21.089Z,38.76
2023-04-08T16:54:48.300Z,39.06
2023-04-08T16:57:16.641Z,39.30
2023-04-08T16:59:43.779Z,39.40
2023-04-08T17:02:11.092Z,39.35
2023-04-08T17:04:38.163Z,39.28
2023-04-08T17:07:05.192Z,39.84
2023-04-08T17:09:32.261Z,39.97
2023-04-08T17:11:59.564Z,39.80
2023-04-08T17:14:27.805Z,40.04
2023-04-08T17:16:55.855Z,39.56
2023-04-08T17:19:23.270Z,39.40
2023-04-08T17:21:50.788Z,40.47
2023-04-08T17:24:18.568Z,40.20
2023-04-08T17:26:46.385Z,39.43
2023-04-08T17:29:13.384Z,39.99
2023-04-08T17:31:41.398Z,40.06
2023-04-08T17:34:08.615Z,40.06
2023-04-08T17:36:35.690Z,39.86
2023-04-08T17:39:02.690Z,40.45
2023-04-08T17:41:38.877Z,40.34
2023-04-08T17:44:06.977Z,39.94
2023-04-08T17:46:33.989Z,40.05
2023-04-08T17:49:01.316Z,39.16
2023-04-08T17:51:30.343Z,38.89
2023-04-08T17:53:57.418Z,41.76
2023-04-08T17:56:24.898Z,43.30
2023-04-08T17:58:51.811Z,47.94
2023-04-08T18:01:19.654Z,48.47
2023-04-08T18:03:47.268Z,52.25
2023-04-08T18:06:14.692Z,54.64
2023-04-08T18:08:41.963Z,55.24
2023-04-08T18:11:09.214Z,56.05
2023-04-08T18:13:36.238Z,56.34
2023-04-08T18:16:04.744Z,55.81
2023-04-08T18:18:31.915Z,56.53
2023-04-08T18:20:59.247Z,55.36
2023-04-08T18:23:27.311Z,54.68
2023-04-08T18:25:54.213Z,54.24
2023-04-08T18:28:23.134Z,54.47
2023-04-08T18:30:53.348Z,53.53
2023-04-08T18:33:20.708Z,52.89
2023-04-08T18:35:47.803Z,52.61
2023-04-08T18:38:15.003Z,53.05
2023-04-08T18:40:45.610Z,53.23
2023-04-08T18:43:13.758Z,54.21
2023-04-08T18:45:41.467Z,53.80
2023-04-08T18:48:08.969Z,54.77
2023-04-08T18:50:36.113Z,54.73
2023-04-08T18:53:03.281Z,54.55
2023-04-08T18:55:32.668Z,55.85
2023-04-08T18:57:59.709Z,56.48
2023-04-08T19:00:27.016Z,56.52
2023-04-08T19:02:54.290Z,55.92
2023-04-08T19:05:21.515Z,56.36
2023-04-08T19:07:48.901Z,56.75
2023-04-08T19:10:16.137Z,57.18
2023-04-08T19:12:43.128Z,57.13
2023-04-08T19:15:10.800Z,57.25
2023-04-08T19:17:37.803Z,58.28
2023-04-08T19:20:06.326Z,58.01
2023-04-08T19:22:33.613Z,58.16
2023-04-08T19:25:00.816Z,58.38
2023-04-08T19:27:27.944Z,59.27
2023-04-08T19:29:54.970Z,59.67
2023-04-08T19:32:22.039Z,58.91
2023-04-08T19:34:49.161Z,60.05
2023-04-08T19:37:16.330Z,59.72
2023-04-08T19:39:43.319Z,59.27
2023-04-08T19:42:12.106Z,59.77
2023-04-08T19:44:39.105Z,59.44
2023-04-08T19:47:06.164Z,60.33
2023-04-08T19:49:33.515Z,59.53
2023-04-08T19:52:01.234Z,59.79
2023-04-08T19:54:30.391Z,59.91
2023-04-08T19:56:58.530Z,59.88
2023-04-08T19:59:25.903Z,59.55
2023-04-08T20:01:53.572Z,60.36
2023-04-08T20:04:21.052Z,60.33
2023-04-08T20:06:49.071Z,60.33
2023-04-08T20:09:16.229Z,59.87
2023-04-08T20:11:43.579Z,60.70
2023-04-08T20:14:10.931Z,60.79
2023-04-08T20:16:38.618Z,61.38
2023-04-08T20:19:05.754Z,61.33
2023-04-08T20:21:32.935Z,61.00
2023-04-08T20:24:00.119Z,60.71
2023-04-08T20:26:27.108Z,61.68
2023-04-08T20:28:57.028Z,61.27
2023-04-08T20:31:25.571Z,61.31
2023-04-08T20:33:53.411Z,60.96
2023-04-08T20:36:20.767Z,61.64
2023-04-08T20:38:47.807Z,61.84
2023-04-08T20:41:20.141Z,60.78
2023-04-08T20:43:47.285Z,61.79
2023-04-08T20:46:14.463Z,61.80
2023-04-08T20:48:42.089Z,61.28
2023-04-08T20:51:09.853Z,61.77
2023-04-08T20:53:37.664Z,62.46
2023-04-08T20:56:05.212Z,62.59
2023-04-08T20:58:32.662Z,62.78
2023-04-08T21:01:00.497Z,62.21
2023-04-08T21:03:28.218Z,62.08
2023-04-08T21:05:56.330Z,62.58
2023-04-08T21:08:23.661Z,63.17
2023-04-08T21:10:52.070Z,62.32
2023-04-08T21:13:19.225Z,62.55
2023-04-08T21:15:46.522Z,62.19
2023-04-08T21:18:13.654Z,62.03
2023-04-08T21:20:41.146Z,61.99
2023-04-08T21:23:08.339Z,62.06
2023-04-08T21:25:35.331Z,61.51
2023-04-08T21:28:02.258Z,62.35
2023-04-08T21:30:29.295Z,62.37
2023-04-08T21:32:56.747Z,61.72
2023-04-08T21:35:24.026Z,62.23
2023-04-08T21:37:51.181Z,62.87
2023-04-08T21:40:18.558Z,63.11
2023-04-08T21:42:45.701Z,62.65
2023-04-08T21:45:12.745Z,62.68
2023-04-08T21:47:39.770Z,62.48
2023-04-08T21:50:08.098Z,62.29
2023-04-08T21:52:36.772Z,62.33
2023-04-08T21:55:04.618Z,62.56
2023-04-08T21:57:31.859Z,62.28
2023-04-08T21:59:58.863Z,61.60
2023-04-08T22:02:26.226Z,61.28
2023-04-08T22:04:53.605Z,62.00
2023-04-08T22:07:20.862Z,62.87
2023-04-08T22:09:47.851Z,63.00
2023-04-08T22:12:15.491Z,61.71
2023-04-08T22:14:42.758Z,62.55
2023-04-08T22:17:10.349Z,62.48
2023-04-08T22:19:37.650Z,62.47
2023-04-08T22:22:04.668Z,63.07
2023-04-08T22:24:31.706Z,63.25
2023-04-08T22:26:58.847Z,63.31
2023-04-08T22:29:26.090Z,63.08
2023-04-08T22:31:53.163Z,62.93
2023-04-08T22:34:20.532Z,63.12
2023-04-08T22:36:47.583Z,63.46
2023-04-08T22:39:14.562Z,62.60
2023-04-08T22:41:41.564Z,63.17
2023-04-08T22:44:08.686Z,64.86
2023-04-08T22:46:36.573Z,65.24
2023-04-08T22:49:04.076Z,65.87
2023-04-08T22:51:31.246Z,65.52
2023-04-08T22:53:58.279Z,64.81
2023-04-08T22:56:26.749Z,64.88
2023-04-08T22:58:54.127Z,64.57
2023-04-08T23:01:22.220Z,65.71
2023-04-08T23:03:50.016Z,66.75
2023-04-08T23:06:17.210Z,67.33
2023-04-08T23:08:44.237Z,67.99
2023-04-08T23:11:11.334Z,68.39
2023-04-08T23:13:38.751Z,69.27
2023-04-08T23:16:06.935Z,69.97
2023-04-08T23:18:35.337Z,70.18
2023-04-08T23:21:03.055Z,69.16
2023-04-08T23:23:30.307Z,69.54
2023-04-08T23:25:57.309Z,69.10
2023-04-08T23:28:24.278Z,69.50
2023-04-08T23:30:51.189Z,69.34
2023-04-08T23:33:18.371Z,69.21
2023-04-08T23:35:45.528Z,69.28
2023-04-08T23:38:12.501Z,69.07
2023-04-08T23:40:39.796Z,69.01
2023-04-08T23:43:06.815Z,69.44
2023-04-08T23:45:34.067Z,69.36
2023-04-08T23:48:01.248Z,69.16
2023-04-08T23:50:28.261Z,69.63
2023-04-08T23:52:55.330Z,68.77
2023-04-08T23:55:22.264Z,68.92
2023-04-08T23:57:50.788Z,69.18
